Terminal Aerodrome Forecast
Issued by NWS Omaha/Valley, NE

Home | Current Version | Previous Version | Text Only | Print | Product List | Glossary Off
Versions: 1 2 3 4 5 6 7 8 9 10 11 12 13 14 15 16 17 18 19 20 21 22 23 24 25 26 27 28 29 30 31 32 33 34 35 36 37 38

000
FTUS43 KOAX 240848 AAA
TAFOFK
TAF AMD
KOFK 240848Z 2409/2506 16010KT P6SM BKN080
      TEMPO 2409/2412 5SM TSRA BKN050CB
     FM241200 19010KT P6SM SCT025 BKN070
      TEMPO 2412/2415 BKN025
     FM241600 18013G21KT P6SM BKN050 PROB30 2422/2501 4SM TSRA
      BKN040CB
     FM250100 18012KT P6SM SCT040 BKN250=

USA.gov is the U.S. government's official web portal to all federal, state and local government web resources and services.